Latest Weather Observations for Point Avoid

IDS60801

Issued at 8:01 am CDT Monday 19 February 2018 (issued every 30 minutes, with the page automatically refreshed every 10 minutes)

About weather observations | Map of weather stations | Latest weather observations for SA | Other Formats
Station Details ID: 018230 Name: POINT AVOID Lat: -34.67 Lon: 135.34 Height: 35.0 m
Data from the previous 72 hours. | See also: Recent months at Point Avoid
Date/Time
CDT
Temp
°C
App
Temp
°C
Dew
Point
°C
Rel
Hum
%
Delta-T
°C
Wind Press
QNH
hPa
Press
MSL
hPa
Rain since
9am
mm
Dir  Spd
km/h
Gust
km/h
Spd
kts
Gust
kts
19/08:00am 18.1 16.3 15.5 85 1.5 ESE 19 28 10 15 1014.9 1014.7 1.8
19/07:30am 17.4 16.1 15.7 90 1.0 ESE 17 20 9 11 1014.6 1014.4 1.8
19/07:00am 17.2 16.3 15.9 92 0.8 E 15 20 8 11 1014.3 1014.1 1.8
19/06:30am 17.1 16.4 16.3 95 0.5 ESE 15 17 8 9 1014.1 1013.9 1.8
19/06:00am 17.1 15.5 16.6 97 0.3 ESE 20 28 11 15 1013.5 1013.3 1.8
19/05:30am 16.8 15.3 16.8 100 0.0 ESE 20 26 11 14 1013.5 1013.3 1.8
19/05:00am 16.4 15.3 16.4 100 0.0 ESE 17 20 9 11 1013.6 1013.4 1.8
19/04:30am 16.3 15.9 16.3 100 0.0 ESE 13 17 7 9 1013.6 1013.4 1.8
19/04:00am 16.5 15.8 16.5 100 0.0 ESE 15 19 8 10 1013.4 1013.2 1.8
19/03:30am 16.5 15.8 16.3 99 0.1 ESE 15 20 8 11 1013.5 1013.3 1.8
19/03:00am 16.5 15.3 16.2 98 0.2 ESE 17 20 9 11 1013.5 1013.3 1.8
19/02:30am 16.5 15.3 16.2 98 0.2 ESE 17 20 9 11 1013.6 1013.4 1.8
19/02:00am 16.7 14.8 16.7 100 0.0 ESE 22 28 12 15 1013.8 1013.6 1.8
19/01:30am 16.9 16.0 16.9 100 0.0 ESE 17 22 9 12 1014.0 1013.8 1.8
19/01:00am 16.8 17.0 16.8 100 0.0 E 11 15 6 8 1014.1 1013.9 1.8
19/12:30am 17.2 17.2 17.2 100 0.0 ESE 13 17 7 9 1014.2 1014.0 1.8
19/12:00am 16.9 17.2 16.9 100 0.0 ESE 11 15 6 8 1014.1 1013.9 1.8
 
Date/Time
CDT
Temp
°C
App
Temp
°C
Dew
Point
°C
Rel
Hum
%
Delta-T
°C
Wind Press
QNH
hPa
Press
MSL
hPa
Rain since
9am
mm
Dir  Spd
km/h
Gust
km/h
Spd
kts
Gust
kts
18/11:30pm 17.0 16.9 17.0 100 0.0 ESE 13 15 7 8 1014.1 1013.9 1.8
18/11:00pm 17.1 16.9 16.8 98 0.2 ESE 13 15 7 8 1014.1 1013.9 1.8
18/10:30pm 17.2 17.4 16.7 97 0.3 ESE 11 15 6 8 1014.1 1013.9 1.8
18/10:00pm 17.8 17.3 17.0 95 0.5 ESE 15 19 8 10 1014.0 1013.8 1.8
18/09:30pm 18.1 17.6 16.8 92 0.8 SE 15 19 8 10 1013.7 1013.5 1.8
18/09:00pm 18.4 17.0 16.6 89 1.1 SE 19 24 10 13 1013.3 1013.1 1.8
18/08:30pm 18.6 17.0 16.0 85 1.5 SE 19 24 10 13 1012.9 1012.7 1.8
18/08:00pm 19.2 17.4 15.9 81 2.0 SSE 20 24 11 13 1012.6 1012.4 1.8
18/07:30pm 20.1 18.8 15.9 77 2.5 SSE 17 20 9 11 1012.3 1012.1 1.8
18/07:00pm 20.8 19.5 15.8 73 3.0 SSE 17 20 9 11 1012.0 1011.8 1.8
18/06:30pm 21.6 21.1 16.8 74 2.9 SE 15 19 8 10 1011.9 1011.7 1.8
18/06:00pm 21.9 20.9 16.6 72 3.2 ESE 17 20 9 11 1011.6 1011.4 1.8
18/05:30pm 20.8 19.5 16.8 78 2.4 SE 19 24 10 13 1011.5 1011.3 1.8
18/05:00pm 21.2 20.1 17.2 78 2.5 SE 19 22 10 12 1011.3 1011.1 1.8
18/04:30pm 20.5 19.4 17.3 82 2.0 SE 19 24 10 13 1011.2 1011.0 1.8
18/04:00pm 20.3 20.1 17.5 84 1.7 SSE 15 20 8 11 1011.1 1010.9 1.8
18/03:30pm 20.0 19.8 17.6 86 1.5 SSE 15 19 8 10 1011.3 1011.1 1.8
18/03:00pm 20.5 20.8 16.9 80 2.2 SSE 11 15 6 8 1011.4 1011.2 1.8
18/02:30pm 22.5 23.8 17.2 72 3.3 N 6 9 3 5 1011.5 1011.3 1.8
18/02:00pm 22.1 22.3 17.7 76 2.7 NNE 13 19 7 10 1011.6 1011.4 1.8
18/01:30pm 21.4 21.8 17.2 77 2.6 NNE 11 17 6 9 1011.9 1011.7 1.8
18/01:00pm 21.0 20.2 17.0 78 2.4 ENE 17 20 9 11 1011.9 1011.7 1.8
18/12:30pm 19.9 19.6 17.3 85 1.6 ENE 15 19 8 10 1012.1 1011.9 1.8
18/12:00pm 19.3 20.2 18.5 95 0.5 NE 11 15 6 8 1012.3 1012.1 1.8
18/11:30am 18.7 19.7 18.7 100 0.0 ENE 11 15 6 8 1012.4 1012.2 1.8
18/11:00am 18.6 19.2 18.6 100 0.0 ENE 13 17 7 9 1012.1 1011.9 1.8
18/10:30am 18.0 19.1 18.0 100 0.0 ENE 9 15 5 8 1012.3 1012.1 1.8
18/10:00am 17.6 18.2 17.6 100 0.0 E 11 17 6 9 1012.4 1012.2 1.6
18/09:30am 17.7 17.5 17.7 100 0.0 ESE 15 20 8 11 1012.7 1012.5 1.6
18/09:00am 17.8 18.1 17.8 100 0.0 SE 13 19 7 10 1013.0 1012.8 4.0
18/08:30am 17.9 18.1 17.7 99 0.1 SE 13 17 7 9 1012.8 1012.6 2.4
18/08:00am 17.9 17.2 17.4 97 0.3 SE 17 22 9 12 1012.1 1011.9 1.8
18/07:30am 18.2 17.1 17.2 94 0.6 SSE 19 22 10 12 1012.4 1012.2 0.8
18/07:00am 18.4 17.4 16.7 90 1.0 SE 17 22 9 12 1011.7 1011.5 0.0
18/06:30am 18.3 16.7 16.6 90 1.0 SE 20 26 11 14 1010.5 1010.3 0.0
18/06:00am 18.3 16.4 16.6 90 1.0 SE 22 30 12 16 1010.0 1009.8 0.0
18/05:30am 18.2 16.2 16.4 89 1.1 ESE 22 28 12 15 1009.0 1008.9 0.0
18/05:00am 18.3 15.6 16.5 89 1.1 SE 26 33 14 18 1008.6 1008.5 0.0
18/04:30am 18.3 16.0 16.6 90 1.0 SE 24 32 13 17 1008.0 1007.9 0.0
18/04:00am 18.3 17.6 16.3 88 1.2 SE 15 19 8 10 1008.2 1008.1 0.0
18/03:30am 17.9 16.6 15.9 88 1.2 ESE 17 19 9 10 1007.9 1007.8 0.0
18/03:00am 17.5 16.8 15.3 87 1.3 ESE 13 17 7 9 1008.0 1007.9 0.0
18/02:30am 17.2 16.4 15.0 87 1.3 ESE 13 17 7 9 1008.3 1008.2 0.0
18/02:00am 17.2 15.9 14.8 86 1.4 ESE 15 20 8 11 1009.0 1008.9 0.0
18/01:30am 17.3 15.7 14.9 86 1.4 ESE 17 24 9 13 1009.3 1009.2 0.0
18/01:00am 17.4 15.8 15.0 86 1.4 ESE 17 20 9 11 1009.9 1009.7 0.0
18/12:30am 17.5 15.5 15.0 85 1.5 ESE 19 24 10 13 1010.1 1009.9 0.0
18/12:00am 17.6 15.4 15.0 85 1.5 SE 20 28 11 15 1010.5 1010.3 0.0
 
Date/Time
CDT
Temp
°C
App
Temp
°C
Dew
Point
°C
Rel
Hum
%
Delta-T
°C
Wind Press
QNH
hPa
Press
MSL
hPa
Rain since
9am
mm
Dir  Spd
km/h
Gust
km/h
Spd
kts
Gust
kts
17/11:30pm 17.7 15.5 15.0 84 1.6 ESE 20 26 11 14 1010.6 1010.4 0.0
17/11:00pm 17.9 15.3 15.0 83 1.7 SE 22 30 12 16 1010.7 1010.5 0.0
17/10:30pm 17.9 15.3 15.0 83 1.7 ESE 22 28 12 15 1010.7 1010.5 0.0
17/10:00pm 18.2 16.1 15.1 82 1.8 ESE 20 26 11 14 1010.9 1010.7 0.0
17/09:30pm 18.4 15.8 14.9 80 2.0 ESE 22 28 12 15 1010.9 1010.7 0.0
17/09:00pm 18.5 15.9 15.0 80 2.0 ESE 22 28 12 15 1011.0 1010.8 0.0
17/08:30pm 18.6 15.3 15.1 80 2.1 SE 26 33 14 18 1010.6 1010.4 0.0
17/08:00pm 19.1 15.8 15.0 77 2.4 SE 26 32 14 17 1010.6 1010.4 0.0
17/07:30pm 19.5 16.3 14.3 72 3.0 SE 24 32 13 17 1010.4 1010.2 0.0
17/07:00pm 20.0 16.4 14.1 69 3.4 SSE 26 32 14 17 1010.5 1010.3 0.0
17/06:30pm 20.1 16.4 14.0 68 3.5 SSE 26 32 14 17 1010.4 1010.2 0.0
17/06:00pm 21.3 17.6 14.0 63 4.2 SSE 26 33 14 18 1010.6 1010.4 0.0
17/05:30pm 22.4 19.0 14.8 62 4.5 SSE 26 32 14 17 1010.6 1010.4 0.0
17/05:00pm 22.4 19.2 14.3 60 4.8 SSE 24 32 13 17 1010.6 1010.4 0.0
17/04:30pm 23.1 20.0 14.4 58 5.1 SSE 24 30 13 16 1010.8 1010.6 0.0
17/04:00pm 22.3 19.2 14.4 61 4.6 SSE 24 30 13 16 1011.1 1010.9 0.0
17/03:30pm 22.7 19.7 14.8 61 4.7 SSE 24 28 13 15 1011.2 1011.0 0.0
17/03:00pm 22.8 19.8 14.9 61 4.7 SSE 24 30 13 16 1011.6 1011.4 0.0
17/02:30pm 22.4 19.3 14.5 61 4.7 SSE 24 28 13 15 1012.2 1012.0 0.0
17/02:00pm 23.1 20.8 14.7 59 5.0 S 20 26 11 14 1012.5 1012.3 0.0
17/01:30pm 22.7 20.4 14.0 58 5.1 S 19 24 10 13 1012.6 1012.4 0.0
17/01:00pm 21.1 18.9 13.3 61 4.5 S 17 22 9 12 1012.9 1012.7 0.0
17/12:30pm 22.1 20.2 12.9 56 5.3 SSE 15 19 8 10 1013.1 1012.9 0.0
17/12:00pm 21.7 19.7 12.8 57 5.1 SSE 15 19 8 10 1013.5 1013.3 0.0
17/11:30am 21.2 19.3 13.1 60 4.6 SSE 15 19 8 10 1013.6 1013.4 0.0
17/11:00am 20.9 18.9 12.6 59 4.7 SE 15 19 8 10 1013.6 1013.4 0.0
17/10:30am 21.2 19.8 12.3 57 5.0 SE 11 15 6 8 1013.7 1013.5 0.0
17/10:00am 20.4 19.8 13.6 65 3.9 SE 9 13 5 7 1013.7 1013.5 0.0
17/09:30am 19.6 18.9 13.1 66 3.7 SE 9 13 5 7 1013.8 1013.6 0.0
17/09:00am 18.5 18.2 13.4 72 2.9 SE 7 9 4 5 1013.9 1013.7 0.0
17/08:30am 17.4 17.5 13.9 80 2.0 ESE 6 7 3 4 1013.7 1013.5 0.0
17/08:00am 15.8 16.4 14.3 91 0.9 E 4 6 2 3 1013.6 1013.4 0.0
17/07:30am 14.6 14.2 14.0 96 0.3 ENE 9 9 5 5 1013.1 1012.9 0.0
17/07:00am 13.8 13.4 13.0 95 0.4 ENE 7 7 4 4 1013.0 1012.8 0.0
17/06:30am 14.1 13.5 13.5 96 0.3 NE 9 11 5 6 1012.7 1012.5 0.0
17/06:00am 14.6 14.5 14.0 96 0.3 NE 7 9 4 5 1012.7 1012.5 0.0
17/05:30am 14.8 14.4 14.0 95 0.5 NE 9 9 5 5 1012.7 1012.5 0.0
17/05:00am 14.7 14.1 13.6 93 0.6 NE 9 11 5 6 1012.5 1012.3 0.0
17/04:30am 14.9 14.2 13.3 90 0.9 NE 9 11 5 6 1012.5 1012.3 0.0
17/04:00am 15.9 15.8 13.9 88 1.1 NE 7 9 4 5 1012.8 1012.6 0.0
17/03:30am 15.9 15.7 13.7 87 1.2 NE 7 7 4 4 1013.0 1012.8 0.0
17/03:00am 16.2 16.2 13.7 85 1.4 SE 6 7 3 4 1013.2 1013.0 0.0
17/02:30am 16.0 15.9 13.3 84 1.5 SE 6 9 3 5 1013.2 1013.0 0.0
17/02:00am 16.6 15.8 14.1 85 1.4 SE 11 15 6 8 1013.1 1012.9 0.0
17/01:30am 16.7 16.0 14.3 86 1.4 SSE 11 13 6 7 1013.4 1013.2 0.0
17/01:00am 16.4 16.3 13.9 85 1.4 SSE 7 11 4 6 1013.9 1013.7 0.0
17/12:30am 16.9 15.7 14.0 83 1.7 SSE 13 15 7 8 1014.0 1013.8 0.0
17/12:00am 16.9 16.3 14.5 86 1.4 SSE 11 15 6 8 1014.2 1014.0 0.0
 
Date/Time
CDT
Temp
°C
App
Temp
°C
Dew
Point
°C
Rel
Hum
%
Delta-T
°C
Wind Press
QNH
hPa
Press
MSL
hPa
Rain since
9am
mm
Dir  Spd
km/h
Gust
km/h
Spd
kts
Gust
kts
16/11:30pm 16.9 16.2 14.4 85 1.4 SSE 11 13 6 7 1014.6 1014.4 0.0
16/11:00pm 16.9 16.2 14.2 84 1.5 SSE 11 13 6 7 1015.0 1014.8 0.0
16/10:30pm 16.9 16.5 14.0 83 1.6 SSE 9 13 5 7 1015.3 1015.1 0.0
16/10:00pm 17.3 16.6 14.2 82 1.8 S 11 15 6 8 1015.2 1015.0 0.0
16/09:30pm 17.3 16.0 13.8 80 2.0 S 13 15 7 8 1015.0 1014.8 0.0
16/09:00pm 17.5 16.6 13.8 79 2.1 S 11 15 6 8 1015.0 1014.8 0.0
16/08:30pm 18.1 16.5 14.0 77 2.3 S 15 19 8 10 1015.2 1015.0 0.0
16/08:00pm 18.7 17.5 14.0 74 2.7 S 13 17 7 9 1015.1 1014.9 0.0
16/07:30pm 19.3 17.6 14.6 74 2.7 SSW 17 20 9 11 1014.8 1014.6 0.0
16/07:00pm 19.8 18.1 14.8 73 2.9 S 17 22 9 12 1014.8 1014.6 0.0
16/06:30pm 20.5 18.6 15.3 72 3.1 SSW 19 24 10 13 1014.9 1014.7 0.0
16/06:00pm 21.1 18.9 14.5 66 3.9 SSW 19 24 10 13 1015.0 1014.8 0.0
16/05:30pm 21.5 19.5 13.9 62 4.4 SW 17 24 9 13 1015.2 1015.0 0.0
16/05:00pm 21.9 19.8 14.8 64 4.2 WSW 19 24 10 13 1015.3 1015.1 0.0
16/04:30pm 21.4 19.5 14.3 64 4.1 SSW 17 22 9 12 1015.5 1015.3 0.0
16/04:00pm 21.1 19.0 13.5 62 4.4 SSW 17 24 9 13 1015.6 1015.4 0.0
16/03:30pm 21.4 19.8 13.8 62 4.4 SSW 15 20 8 11 1015.8 1015.6 0.0
16/03:00pm 21.2 19.0 13.4 61 4.5 SSW 17 20 9 11 1016.1 1016.0 0.0
16/02:30pm 22.1 20.5 14.0 60 4.7 S 15 20 8 11 1016.3 1016.2 0.0
16/02:00pm 21.4 20.2 12.8 58 4.9 SE 11 17 6 9 1016.5 1016.4 0.0
16/01:30pm 21.1 20.5 14.5 66 3.9 SSE 11 17 6 9 1016.7 1016.6 0.0
16/01:00pm 20.9 20.5 14.1 65 4.0 SSE 9 15 5 8 1016.6 1016.5 0.0
16/12:30pm 20.8 20.6 14.7 68 3.6 SE 9 15 5 8 1016.9 1016.8 0.0
16/12:00pm 18.9 18.7 16.7 87 1.3 SSE 13 19 7 10 1017.3 1017.2 0.0
16/11:30am 21.2 20.5 14.4 65 4.0 SE 11 19 6 10 1017.2 1017.1 0.0
16/11:00am 20.4 19.6 14.1 67 3.7 S 11 17 6 9 1017.2 1017.1 0.0
16/10:30am 20.4 19.4 14.5 69 3.4 SSE 13 17 7 9 1017.3 1017.2 0.0
16/10:00am 20.6 19.6 14.5 68 3.6 SSE 13 15 7 8 1017.3 1017.2 0.0
16/09:30am 19.3 18.5 14.1 72 3.0 SSE 11 15 6 8 1017.2 1017.1 0.0
16/09:00am 19.6 18.2 14.6 73 2.9 S 15 17 8 9 1017.0 1016.9 0.0
16/08:30am 18.0 17.0 14.7 81 1.9 S 13 19 7 10 1016.7 1016.6 0.0

Other Formats:

Comma delimited format used in spreadsheet applications
http://www.bom.gov.au/fwo/IDS60801/IDS60801.95649.axf

JavaScript Object Notation format (JSON) in row-major order
http://www.bom.gov.au/fwo/IDS60801/IDS60801.95649.json